Burnwell, Kentucky
Current Conditions -  °F | °C
As of 12:35 AM on Thursday 27 Nov 2014 (Local Time) from KPBX Reporting Station
Broken Clouds Broken Clouds  
Wind Chill:   Ceiling: 11000
Heat Index:   Visibility: 10mi
Dew Point: -1°   Wind: 0mph
Humidity: 77%   Direction: NA
Pressure: 29.98"   Gusts: NA
Location:  37.632°N, 82.2603°W
Report Text: KPBX 270535Z AUTO 00000KT 10SM SCT070 SCT085 BKN110 02/M01 A2998 RMK AO2 T00241012
Loading
Personal Weather Stations






























Interactive Weather Map New forecast layout! Learn more

10-Day Weather Forecast

Advertisements
Track Severe Weather on mobile